My/aldabra — FFZV — position and weather

sailwx.info

Track history (hours):
 
Tides and Currents Weather Stations Pressure Air Temp Water Temp Dewpoint Dewpoint Depression Visibility Wind Speed Wind Dir Waves Ship Positions

My/aldabra

Last reported at 2015-May-29 21:33 UTC. Time now 2015-May-29 22:31 UTC.
Position N 37°56' E 023°39'.

Length 24 m.

Type: Ship. MMSI: 228004800.

Date/timePositionNaut miles runAvg speedWind from/ knotsBaromVisibWave heightAir tempDewpointWater temp
2015-May-29 21:33N 37°56' E 023°39'0 0.0
2015-May-29 20:33N 37°56' E 023°39'0 0.0
2015-May-29 19:33N 37°56' E 023°39'0 0.0
2015-May-29 18:33N 37°56' E 023°39'0 0.0
2015-May-29 17:33N 37°56' E 023°39'0 0.0
2015-May-29 16:33N 37°56' E 023°39'0 0.0
2015-May-29 15:33N 37°56' E 023°39'0 0.0
2015-May-29 14:33N 37°56' E 023°39'0 0.0
2015-May-29 13:33N 37°56' E 023°39'0 0.0
2015-May-29 12:33N 37°56' E 023°39'0 0.0
2015-May-29 11:33N 37°56' E 023°39'0 0.0
2015-May-29 10:33N 37°56' E 023°39'0 0.0
2015-May-29 09:33N 37°56' E 023°39'0 0.0
2015-May-29 08:33N 37°56' E 023°39'0 0.0
2015-May-29 07:33N 37°56' E 023°39'0 0.0
2015-May-29 06:33N 37°56' E 023°39'0 0.0
2015-May-29 05:33N 37°56' E 023°39'0 0.0
2015-May-29 04:33N 37°56' E 023°39'0 0.0
2015-May-29 03:33N 37°56' E 023°39'0 0.0
2015-May-29 02:33N 37°56' E 023°39'0 0.0
2015-May-29 01:33N 37°56' E 023°39'0 0.0
2015-May-29 00:33N 37°56' E 023°39'0 0.0
2015-May-28 23:33N 37°56' E 023°39'0 0.0
2015-May-28 22:33N 37°56' E 023°39'0 0.0
2015-May-28 21:33N 37°56' E 023°39'0 0.0
2015-May-28 20:33N 37°56' E 023°39'0 0.0
2015-May-28 19:33N 37°56' E 023°39'0 0.0
2015-May-28 18:33N 37°56' E 023°39'0 0.0
2015-May-28 17:33N 37°56' E 023°39'0 0.0
2015-May-28 16:33N 37°56' E 023°39'0 0.0
2015-May-28 15:33N 37°56' E 023°39'0 0.0
2015-May-28 14:33N 37°56' E 023°39'  
2015-May-26 08:34N 37°56' E 023°39'6 6.1
2015-May-26 07:33N 37°50' E 023°37'1010.4
2015-May-26 06:33N 37°41' E 023°32'10 0.2
2015-May-24 08:24N 37°32' E 023°25'7 8.5
2015-May-24 07:33N 37°39' E 023°22'10 9.4
2015-May-24 06:32N 37°38' E 023°10'0 0.1
2015-May-24 05:33N 37°38' E 023°09'0 0.0
2015-May-24 04:33N 37°38' E 023°09'0 0.0
2015-May-24 03:33N 37°38' E 023°09'0 0.0
2015-May-24 02:33N 37°38' E 023°09'0 0.0
2015-May-24 01:32N 37°38' E 023°09'0 0.0
2015-May-24 00:33N 37°38' E 023°09'0 0.0
2015-May-23 23:26N 37°38' E 023°09'0 0.0
2015-May-23 22:33N 37°38' E 023°09'0 0.0
2015-May-23 21:33N 37°38' E 023°09'0 0.0
2015-May-23 20:33N 37°38' E 023°09'0 0.0
2015-May-23 19:31N 37°38' E 023°09'0 0.0
2015-May-23 18:33N 37°38' E 023°09'0 0.0
2015-May-23 17:33N 37°38' E 023°09'0 0.0
2015-May-23 16:33N 37°38' E 023°09'0 0.0
2015-May-23 15:33N 37°38' E 023°09'0 0.0
2015-May-23 14:33N 37°38' E 023°09'0 0.0
2015-May-23 13:32N 37°38' E 023°09'0 0.0
2015-May-23 12:33N 37°38' E 023°09'0 0.0
2015-May-23 11:33N 37°38' E 023°09'0 0.0
2015-May-23 10:33N 37°38' E 023°09'0 0.0
2015-May-23 09:34N 37°38' E 023°09'0 0.0
2015-May-23 08:32N 37°38' E 023°09'  
Track history (hours):
 
Tides and Currents Weather Stations Pressure Air Temp Water Temp Dewpoint Dewpoint Depression Visibility Wind Speed Wind Dir Waves Ship Positions

My/aldabra

Last reported at 2015-May-29 21:33 UTC. Time now 2015-May-29 22:31 UTC.
Position N 37°56' E 023°39'.

Length 24 m.

Type: Ship. MMSI: 228004800.

Date/timePositionNaut miles runAvg speedWind from/ knotsBaromVisibWave heightAir tempDewpointWater temp
2015-May-29 21:33N 37°56' E 023°39'0 0.0
2015-May-29 20:33N 37°56' E 023°39'0 0.0
2015-May-29 19:33N 37°56' E 023°39'0 0.0
2015-May-29 18:33N 37°56' E 023°39'0 0.0
2015-May-29 17:33N 37°56' E 023°39'0 0.0
2015-May-29 16:33N 37°56' E 023°39'0 0.0
2015-May-29 15:33N 37°56' E 023°39'0 0.0
2015-May-29 14:33N 37°56' E 023°39'0 0.0
2015-May-29 13:33N 37°56' E 023°39'0 0.0
2015-May-29 12:33N 37°56' E 023°39'0 0.0
2015-May-29 11:33N 37°56' E 023°39'0 0.0
2015-May-29 10:33N 37°56' E 023°39'0 0.0
2015-May-29 09:33N 37°56' E 023°39'0 0.0
2015-May-29 08:33N 37°56' E 023°39'0 0.0
2015-May-29 07:33N 37°56' E 023°39'0 0.0
2015-May-29 06:33N 37°56' E 023°39'0 0.0
2015-May-29 05:33N 37°56' E 023°39'0 0.0
2015-May-29 04:33N 37°56' E 023°39'0 0.0
2015-May-29 03:33N 37°56' E 023°39'0 0.0
2015-May-29 02:33N 37°56' E 023°39'0 0.0
2015-May-29 01:33N 37°56' E 023°39'0 0.0
2015-May-29 00:33N 37°56' E 023°39'0 0.0
2015-May-28 23:33N 37°56' E 023°39'0 0.0
2015-May-28 22:33N 37°56' E 023°39'0 0.0
2015-May-28 21:33N 37°56' E 023°39'0 0.0
2015-May-28 20:33N 37°56' E 023°39'0 0.0
2015-May-28 19:33N 37°56' E 023°39'0 0.0
2015-May-28 18:33N 37°56' E 023°39'0 0.0
2015-May-28 17:33N 37°56' E 023°39'0 0.0
2015-May-28 16:33N 37°56' E 023°39'0 0.0
2015-May-28 15:33N 37°56' E 023°39'0 0.0
2015-May-28 14:33N 37°56' E 023°39'  
2015-May-26 08:34N 37°56' E 023°39'6 6.1
2015-May-26 07:33N 37°50' E 023°37'1010.4
2015-May-26 06:33N 37°41' E 023°32'10 0.2
2015-May-24 08:24N 37°32' E 023°25'7 8.5
2015-May-24 07:33N 37°39' E 023°22'10 9.4
2015-May-24 06:32N 37°38' E 023°10'0 0.1
2015-May-24 05:33N 37°38' E 023°09'0 0.0
2015-May-24 04:33N 37°38' E 023°09'0 0.0
2015-May-24 03:33N 37°38' E 023°09'0 0.0
2015-May-24 02:33N 37°38' E 023°09'0 0.0
2015-May-24 01:32N 37°38' E 023°09'0 0.0
2015-May-24 00:33N 37°38' E 023°09'0 0.0
2015-May-23 23:26N 37°38' E 023°09'0 0.0
2015-May-23 22:33N 37°38' E 023°09'0 0.0
2015-May-23 21:33N 37°38' E 023°09'0 0.0
2015-May-23 20:33N 37°38' E 023°09'0 0.0
2015-May-23 19:31N 37°38' E 023°09'0 0.0
2015-May-23 18:33N 37°38' E 023°09'0 0.0
2015-May-23 17:33N 37°38' E 023°09'0 0.0
2015-May-23 16:33N 37°38' E 023°09'0 0.0
2015-May-23 15:33N 37°38' E 023°09'0 0.0
2015-May-23 14:33N 37°38' E 023°09'0 0.0
2015-May-23 13:32N 37°38' E 023°09'0 0.0
2015-May-23 12:33N 37°38' E 023°09'0 0.0
2015-May-23 11:33N 37°38' E 023°09'0 0.0
2015-May-23 10:33N 37°38' E 023°09'0 0.0
2015-May-23 09:34N 37°38' E 023°09'0 0.0
2015-May-23 08:32N 37°38' E 023°09'  

Dump ship's entire track history